メインページ
METAR-TAF:

METAR-TAF

空港 :

バミューダ諸島, バミューダ諸島

バミューダ国際空港

緯度: 32-22N, 経度: 064-41W, 海抜: 6m

現時点の気象観測

当レポートは37分前の21:55(UTC)に作成
南西の風 12kt
気温 29°C
湿度 74%
気圧 1018 hPa
視程10km以上
高度2100ftの雲は散在している, 塔状積雲.
高度16000ftの雲は散在している
高度30000ftの千切れ雲あり

METAR: TXKF 262155Z 23012KT 9999 SCT021TCU SCT160 BKN300 29/24 Q1018 RMK VIRGA NW ASOCTD TCU TCU DSNT S-SW

時間: 19:32 (22:32 UTC)

予報

当レポートは2時間35分前の19:57(UTC)に作成
予報は26日の 19時(UTC)から 27日の 18時(UTC)まで有効
南西の風 12kt
視程10km以上
高度1500ftの雲はほとんどない
高度12000ftの雲は散在している
高度30000ftの千切れ雲あり
近辺でにわか雨
確率 40% :
26日の 19時(UTC)から 27日の 06時(UTC)まで一時的に
西の風 15kt
視程: 4800m
高度1400ftの千切れ雲あり
にわか雨
確率 30% :
26日の 19時(UTC)から 27日の 09時(UTC)まで一時的に
西の風 15kt、最大25ktの突風を伴う
視程: 3200m
高度900ftの千切れ雲あり, 積乱雲.
激しい雷雨, 雨
27日の 06時(UTC)から 27日の 18時(UTC)まで一時的に
西の風 15kt
視程: 4800m
高度1400ftの千切れ雲あり
にわか雨
確率 40% :
27日の 09時(UTC)から 27日の 18時(UTC)まで一時的に
西の風 15kt、最大25ktの突風を伴う
視程: 3200m
高度900ftの千切れ雲あり, 積乱雲.
激しい雷雨, 雨

TAF: TXKF 261957Z 2619/2718 23012KT 9999 VCSH FEW015 SCT120 BKN300 PROB40 TEMPO 2619/2706 28015KT 4800 SHRA BKN014 PROB30 TEMPO 2619/2709 28015G25KT 3200 TSRA BKN009CB TEMPO 2706/2718 28015KT 4800 SHRA BKN014 PROB40 TEMPO 2709/2718 28015G25KT 3200 TSRA BKN009CB

4,000以上の空港の気象観測と天気予報(METAR報とTAF報)

利用可能な観測所は地図上に黄色い丸と赤い丸で示す。

丸の上にカーソルを重ねると観測所名を参照できる。

次にクリックすると気象観測と天気予報を参照できる。

マップの切り替え:黒色「×」印の緑ボタンをクリックして拡大、「-」印の緑ボタンをクリックして縮小、緑色の三角印をクリックして隣りの地図に切り替え


METAR-TAF: